createdAt,value
2018-09-03T00:00:31.260Z,0
2018-09-03T00:01:40.931Z,0
2018-09-03T00:02:50.128Z,0
2018-09-03T00:03:59.804Z,0
2018-09-03T00:05:09.256Z,0
2018-09-03T00:06:18.433Z,0
2018-09-03T00:07:27.666Z,0
2018-09-03T00:08:37.096Z,0
2018-09-03T00:09:46.017Z,0
2018-09-03T00:10:54.674Z,0
2018-09-03T00:12:04.367Z,0
2018-09-03T00:13:13.031Z,0
2018-09-03T00:14:22.281Z,0
2018-09-03T00:15:31.707Z,0
2018-09-03T00:16:41.122Z,0
2018-09-03T00:17:50.547Z,0
2018-09-03T00:18:59.454Z,0
2018-09-03T00:20:09.152Z,0
2018-09-03T00:21:18.314Z,0
2018-09-03T00:22:27.732Z,0
2018-09-03T00:23:37.415Z,0
2018-09-03T00:24:47.094Z,0
2018-09-03T00:25:56.522Z,0
2018-09-03T00:27:06.452Z,0
2018-09-03T00:28:16.152Z,0
2018-09-03T00:29:25.824Z,0
2018-09-03T00:30:35.510Z,0
2018-09-03T00:31:45.460Z,0
2018-09-03T00:32:55.129Z,0
2018-09-03T00:34:04.802Z,0
2018-09-03T00:35:13.810Z,0
2018-09-03T00:36:23.025Z,0
2018-09-03T00:37:32.195Z,0
2018-09-03T00:38:41.611Z,0
2018-09-03T00:39:50.774Z,0
2018-09-03T00:40:59.688Z,0
2018-09-03T00:42:09.118Z,0
2018-09-03T00:43:18.890Z,0
2018-09-03T00:44:28.382Z,0
2018-09-03T00:45:37.811Z,0
2018-09-03T00:46:46.975Z,0
2018-09-03T00:47:56.444Z,0
2018-09-03T00:49:05.870Z,0
2018-09-03T00:50:15.591Z,0
2018-09-03T00:51:25.007Z,0
2018-09-03T00:52:34.198Z,0
2018-09-03T00:53:43.621Z,0
2018-09-03T00:54:53.069Z,0
2018-09-03T00:56:01.966Z,0
2018-09-03T00:57:11.666Z,0
2018-09-03T00:58:21.110Z,0
2018-09-03T00:59:30.817Z,0
2018-09-03T01:00:40.298Z,0
2018-09-03T01:01:49.752Z,0
2018-09-03T01:02:58.924Z,0
2018-09-03T01:04:08.360Z,0
2018-09-03T01:05:17.792Z,0
2018-09-03T01:06:27.775Z,0
2018-09-03T01:07:36.681Z,0
2018-09-03T01:08:45.837Z,0
2018-09-03T01:09:55.256Z,0
2018-09-03T01:11:04.443Z,0
2018-09-03T01:12:13.856Z,0
2018-09-03T01:13:23.056Z,0
2018-09-03T01:14:32.494Z,0
2018-09-03T01:15:41.918Z,0
2018-09-03T01:16:51.711Z,0
2018-09-03T01:18:00.891Z,0
2018-09-03T01:19:10.068Z,0
2018-09-03T01:20:19.492Z,0
2018-09-03T01:21:28.657Z,0
2018-09-03T01:22:37.821Z,0
2018-09-03T01:23:46.767Z,0
2018-09-03T01:24:56.175Z,0
2018-09-03T01:26:06.143Z,0
2018-09-03T01:27:15.312Z,0
2018-09-03T01:28:24.474Z,0
2018-09-03T01:29:33.837Z,0
2018-09-03T01:30:43.828Z,0
2018-09-03T01:31:53.776Z,0
2018-09-03T01:33:02.942Z,0
2018-09-03T01:34:12.108Z,0
2018-09-03T01:35:21.031Z,0
2018-09-03T01:36:30.460Z,0
2018-09-03T01:37:40.159Z,0
2018-09-03T01:38:49.584Z,0
2018-09-03T01:39:59.033Z,0
2018-09-03T01:41:08.458Z,0
2018-09-03T01:42:17.376Z,0
2018-09-03T01:43:26.806Z,0
2018-09-03T01:44:36.523Z,0
2018-09-03T01:45:45.953Z,0
2018-09-03T01:46:55.383Z,0
2018-09-03T01:48:05.090Z,0
2018-09-03T01:49:14.787Z,0
2018-09-03T01:50:23.705Z,0
2018-09-03T01:51:32.871Z,0
2018-09-03T01:52:42.575Z,0
2018-09-03T01:53:51.513Z,0
2018-09-03T01:55:01.199Z,0
2018-09-03T01:56:10.630Z,0
2018-09-03T01:57:20.335Z,0
2018-09-03T01:58:29.781Z,0
2018-09-03T01:59:38.951Z,0
2018-09-03T02:00:48.132Z,0
2018-09-03T02:01:57.043Z,0
2018-09-03T02:03:06.730Z,0
2018-09-03T02:04:16.684Z,0
2018-09-03T02:05:26.378Z,0
2018-09-03T02:06:36.066Z,0
2018-09-03T02:07:45.753Z,0
2018-09-03T02:08:55.450Z,0
2018-09-03T02:10:04.938Z,0
2018-09-03T02:11:14.362Z,0
2018-09-03T02:12:23.284Z,0
2018-09-03T02:13:33.051Z,0
2018-09-03T02:14:42.214Z,0
2018-09-03T02:15:52.148Z,0
2018-09-03T02:17:01.069Z,0
2018-09-03T02:18:10.318Z,0
2018-09-03T02:19:19.738Z,0
2018-09-03T02:20:28.908Z,0
2018-09-03T02:21:38.651Z,0
2018-09-03T02:22:48.338Z,0
2018-09-03T02:23:56.994Z,0
2018-09-03T02:25:06.679Z,0
2018-09-03T02:26:15.843Z,0
2018-09-03T02:27:25.529Z,0
2018-09-03T02:28:34.698Z,0
2018-09-03T02:29:44.130Z,0
2018-09-03T02:30:53.376Z,0
2018-09-03T02:32:03.073Z,0
2018-09-03T02:33:12.798Z,0
2018-09-03T02:34:22.254Z,0
2018-09-03T02:35:31.675Z,0
2018-09-03T02:36:41.110Z,0
2018-09-03T02:37:50.548Z,0
2018-09-03T02:39:00.248Z,0
2018-09-03T02:40:09.690Z,0
2018-09-03T02:41:18.865Z,0
2018-09-03T02:42:28.031Z,0
2018-09-03T02:43:37.723Z,0
2018-09-03T02:44:47.154Z,0
2018-09-03T02:45:57.179Z,0
2018-09-03T02:47:06.338Z,0
2018-09-03T02:48:16.050Z,0
2018-09-03T02:49:26.011Z,0
2018-09-03T02:50:35.471Z,0
2018-09-03T02:51:44.643Z,0
2018-09-03T02:52:54.091Z,0
2018-09-03T02:54:02.747Z,0
2018-09-03T02:55:12.439Z,0
2018-09-03T02:56:22.187Z,0
2018-09-03T02:57:31.873Z,0
2018-09-03T02:58:41.307Z,0
2018-09-03T02:59:50.733Z,0
2018-09-03T03:01:00.682Z,0
2018-09-03T03:02:10.638Z,0
2018-09-03T03:03:19.815Z,0
2018-09-03T03:04:29.493Z,0
2018-09-03T03:05:39.176Z,0
2018-09-03T03:06:48.861Z,0
2018-09-03T03:07:58.534Z,0
2018-09-03T03:09:08.005Z,0
2018-09-03T03:10:17.482Z,0
2018-09-03T03:11:26.661Z,0
2018-09-03T03:12:35.877Z,0
2018-09-03T03:13:45.326Z,0
2018-09-03T03:14:54.760Z,0
2018-09-03T03:16:03.933Z,0
2018-09-03T03:17:13.117Z,0
2018-09-03T03:18:22.561Z,0
2018-09-03T03:19:32.007Z,0
2018-09-03T03:20:41.190Z,0
2018-09-03T03:21:50.624Z,0
2018-09-03T03:22:59.803Z,0
2018-09-03T03:24:09.237Z,0
2018-09-03T03:25:18.667Z,0
2018-09-03T03:26:28.110Z,0
2018-09-03T03:27:38.084Z,0
2018-09-03T03:28:47.781Z,0
2018-09-03T03:29:56.973Z,0
2018-09-03T03:31:05.910Z,0
2018-09-03T03:32:15.621Z,0
2018-09-03T03:33:24.820Z,0
2018-09-03T03:34:34.256Z,0
2018-09-03T03:35:43.419Z,0
2018-09-03T03:36:52.867Z,0
2018-09-03T03:38:01.795Z,0
2018-09-03T03:39:11.478Z,0
2018-09-03T03:40:20.929Z,0
2018-09-03T03:41:30.362Z,0
2018-09-03T03:42:39.532Z,0
2018-09-03T03:43:49.258Z,0
2018-09-03T03:44:58.681Z,0
2018-09-03T03:46:07.848Z,0
2018-09-03T03:47:17.575Z,0
2018-09-03T03:48:27.043Z,0
2018-09-03T03:49:37.006Z,0
2018-09-03T03:50:46.231Z,0
2018-09-03T03:51:55.898Z,0
2018-09-03T03:53:05.316Z,0
2018-09-03T03:54:14.492Z,0
2018-09-03T03:55:24.055Z,0
2018-09-03T03:56:33.502Z,0
2018-09-03T03:57:43.192Z,0
2018-09-03T03:58:52.393Z,0
2018-09-03T04:00:01.845Z,0
2018-09-03T04:01:11.537Z,0
2018-09-03T04:02:20.710Z,0
2018-09-03T04:03:30.411Z,0
2018-09-03T04:04:40.097Z,0
2018-09-03T04:05:49.271Z,0
2018-09-03T04:06:58.449Z,0
2018-09-03T04:08:08.159Z,0
2018-09-03T04:09:17.639Z,0
2018-09-03T04:10:27.345Z,0
2018-09-03T04:11:36.795Z,0
2018-09-03T04:12:46.230Z,0
2018-09-03T04:13:55.679Z,0
2018-09-03T04:15:05.099Z,0
2018-09-03T04:16:14.697Z,0
2018-09-03T04:17:23.881Z,0
2018-09-03T04:18:33.580Z,0
2018-09-03T04:19:43.543Z,0
2018-09-03T04:20:52.976Z,0
2018-09-03T04:22:02.410Z,0
2018-09-03T04:23:12.764Z,0
2018-09-03T04:24:22.549Z,0
2018-09-03T04:25:31.713Z,0
2018-09-03T04:26:41.146Z,0
2018-09-03T04:27:50.575Z,0
2018-09-03T04:29:00.873Z,0
2018-09-03T04:30:10.041Z,0
2018-09-03T04:31:19.465Z,0
2018-09-03T04:32:28.645Z,0
2018-09-03T04:33:38.338Z,0
2018-09-03T04:34:47.565Z,0
2018-09-03T04:35:56.532Z,0
2018-09-03T04:37:05.958Z,0
2018-09-03T04:38:15.395Z,0
2018-09-03T04:39:24.816Z,0
2018-09-03T04:40:33.995Z,0
2018-09-03T04:41:43.528Z,0
2018-09-03T04:42:52.994Z,0
2018-09-03T04:44:02.175Z,0
2018-09-03T04:45:11.622Z,0
2018-09-03T04:46:20.782Z,0
2018-09-03T04:47:30.203Z,0
2018-09-03T04:48:39.693Z,0
2018-09-03T04:49:48.852Z,0
2018-09-03T04:50:58.027Z,0
2018-09-03T04:52:07.455Z,0
2018-09-03T04:53:16.409Z,0
2018-09-03T04:54:25.343Z,0
2018-09-03T04:55:34.768Z,0
2018-09-03T04:56:44.194Z,0
2018-09-03T04:57:53.370Z,0
2018-09-03T04:59:03.058Z,0
2018-09-03T05:00:12.229Z,0
2018-09-03T05:01:21.669Z,0
2018-09-03T05:02:30.583Z,0
2018-09-03T05:03:40.289Z,0
2018-09-03T05:04:49.755Z,0
2018-09-03T05:05:59.289Z,0
2018-09-03T05:07:08.731Z,0
2018-09-03T05:08:17.904Z,0
2018-09-03T05:09:27.132Z,0
2018-09-03T05:10:37.296Z,0
2018-09-03T05:11:46.651Z,0
2018-09-03T05:12:56.302Z,0
2018-09-03T05:14:05.463Z,0
2018-09-03T05:15:14.906Z,0
2018-09-03T05:16:24.342Z,0
2018-09-03T05:17:34.727Z,0
2018-09-03T05:18:43.907Z,0
2018-09-03T05:19:53.600Z,0
2018-09-03T05:21:03.332Z,0
2018-09-03T05:22:13.274Z,0
2018-09-03T05:23:22.478Z,0
2018-09-03T05:24:31.393Z,0
2018-09-03T05:25:41.094Z,0
2018-09-03T05:26:50.530Z,0
2018-09-03T05:27:59.972Z,0
2018-09-03T05:29:09.469Z,0
2018-09-03T05:30:18.893Z,0
2018-09-03T05:31:28.751Z,0
2018-09-03T05:32:37.923Z,0
2018-09-03T05:33:47.100Z,0
2018-09-03T05:34:56.562Z,0
2018-09-03T05:36:06.262Z,0
2018-09-03T05:37:15.503Z,0
2018-09-03T05:38:25.196Z,0
2018-09-03T05:39:34.383Z,0
2018-09-03T05:40:43.812Z,0
2018-09-03T05:41:53.255Z,0
2018-09-03T05:43:02.566Z,0
2018-09-03T05:44:12.605Z,0
2018-09-03T05:45:21.806Z,0
2018-09-03T05:46:31.248Z,0
2018-09-03T05:47:40.682Z,0
2018-09-03T05:48:50.643Z,0
2018-09-03T05:50:00.339Z,0
2018-09-03T05:51:09.761Z,0
2018-09-03T05:52:19.483Z,0
2018-09-03T05:53:28.675Z,0
2018-09-03T05:54:38.148Z,0
2018-09-03T05:55:47.084Z,0
2018-09-03T05:56:57.123Z,0
2018-09-03T05:58:06.572Z,4
2018-09-03T05:59:16.594Z,4
2018-09-03T06:00:26.092Z,4
2018-09-03T06:01:35.816Z,4
2018-09-03T06:02:45.269Z,4
2018-09-03T06:03:54.979Z,4
2018-09-03T06:05:04.652Z,4
2018-09-03T06:06:14.614Z,0
2018-09-03T06:07:24.307Z,0
2018-09-03T06:08:34.040Z,0
2018-09-03T06:09:43.720Z,0
2018-09-03T06:10:52.627Z,0
2018-09-03T06:12:01.551Z,4
2018-09-03T06:13:11.244Z,4
2018-09-03T06:14:20.677Z,4
2018-09-03T06:15:30.120Z,4
2018-09-03T06:16:39.814Z,4
2018-09-03T06:17:49.329Z,4
2018-09-03T06:18:59.443Z,4
2018-09-03T06:20:09.137Z,4
2018-09-03T06:21:18.832Z,4
2018-09-03T06:22:28.257Z,4
2018-09-03T06:23:37.188Z,4
2018-09-03T06:24:46.885Z,4
2018-09-03T06:25:56.588Z,4
2018-09-03T06:27:06.019Z,4
2018-09-03T06:28:14.932Z,4
2018-09-03T06:29:23.870Z,0
2018-09-03T06:30:33.089Z,0
2018-09-03T06:31:42.559Z,4
2018-09-03T06:32:52.782Z,4
2018-09-03T06:34:02.211Z,4
2018-09-03T06:35:11.393Z,4
2018-09-03T06:36:21.108Z,4
2018-09-03T06:37:30.034Z,4
2018-09-03T06:38:39.473Z,4
2018-09-03T06:39:48.923Z,4
2018-09-03T06:40:57.587Z,4
2018-09-03T06:42:07.023Z,4
2018-09-03T06:43:16.445Z,4
2018-09-03T06:44:25.880Z,4
2018-09-03T06:45:35.609Z,0
2018-09-03T06:46:44.540Z,4
2018-09-03T06:47:53.458Z,4
2018-09-03T06:49:02.885Z,4
2018-09-03T06:50:12.580Z,4
2018-09-03T06:51:22.010Z,4
2018-09-03T06:52:32.034Z,4
2018-09-03T06:53:41.560Z,4
2018-09-03T06:54:51.089Z,4
2018-09-03T06:56:00.522Z,4
2018-09-03T06:57:09.706Z,0
2018-09-03T06:58:18.885Z,4
2018-09-03T06:59:28.904Z,4
2018-09-03T07:00:38.452Z,4
2018-09-03T07:01:47.619Z,8
2018-09-03T07:02:56.797Z,4
2018-09-03T07:04:05.958Z,4
2018-09-03T07:05:15.372Z,8
2018-09-03T07:06:25.103Z,4
2018-09-03T07:07:34.798Z,4
2018-09-03T07:08:44.513Z,4
2018-09-03T07:09:53.950Z,4
2018-09-03T07:11:03.708Z,8
2018-09-03T07:12:12.618Z,8
2018-09-03T07:13:22.321Z,8
2018-09-03T07:14:32.035Z,8
2018-09-03T07:15:40.953Z,4
2018-09-03T07:16:50.375Z,4
2018-09-03T07:17:59.688Z,4
2018-09-03T07:19:09.393Z,4
2018-09-03T07:20:18.546Z,8
2018-09-03T07:21:28.021Z,8
2018-09-03T07:22:37.224Z,8
2018-09-03T07:23:46.660Z,4
2018-09-03T07:24:56.086Z,8
2018-09-03T07:26:05.308Z,8
2018-09-03T07:27:14.501Z,8
2018-09-03T07:28:23.941Z,8
2018-09-03T07:29:33.123Z,8
2018-09-03T07:30:41.806Z,8
2018-09-03T07:31:51.512Z,12
2018-09-03T07:33:01.229Z,12
2018-09-03T07:34:10.413Z,12
2018-09-03T07:35:20.338Z,8
2018-09-03T07:36:29.513Z,8
2018-09-03T07:37:39.203Z,8
2018-09-03T07:38:48.649Z,8
2018-09-03T07:39:58.079Z,4
2018-09-03T07:41:07.760Z,8
2018-09-03T07:42:16.952Z,4
2018-09-03T07:43:26.393Z,4
2018-09-03T07:44:36.336Z,4
2018-09-03T07:45:45.809Z,4
2018-09-03T07:46:55.513Z,4
2018-09-03T07:48:04.970Z,4
2018-09-03T07:49:14.417Z,4
2018-09-03T07:50:23.869Z,4
2018-09-03T07:51:33.308Z,4
2018-09-03T07:52:42.734Z,4
2018-09-03T07:53:52.186Z,4
2018-09-03T07:55:01.928Z,8
2018-09-03T07:56:11.374Z,8
2018-09-03T07:57:20.281Z,4
2018-09-03T07:58:29.717Z,4
2018-09-03T07:59:38.890Z,4
2018-09-03T08:00:48.349Z,4
2018-09-03T08:01:57.818Z,4
2018-09-03T08:03:06.972Z,4
2018-09-03T08:04:16.163Z,4
2018-09-03T08:05:26.292Z,4
2018-09-03T08:06:35.208Z,4
2018-09-03T08:07:44.907Z,4
2018-09-03T08:08:53.839Z,4
2018-09-03T08:10:03.273Z,4
2018-09-03T08:11:12.487Z,4
2018-09-03T08:12:21.694Z,4
2018-09-03T08:13:30.627Z,4
2018-09-03T08:14:40.073Z,4
2018-09-03T08:15:49.832Z,4
2018-09-03T08:16:58.761Z,4
2018-09-03T08:18:07.940Z,4
2018-09-03T08:19:17.130Z,4
2018-09-03T08:20:26.029Z,4
2018-09-03T08:21:35.474Z,4
2018-09-03T08:22:45.418Z,8
2018-09-03T08:23:54.631Z,8
2018-09-03T08:25:04.056Z,4
2018-09-03T08:26:12.983Z,4
2018-09-03T08:27:22.432Z,8
2018-09-03T08:28:32.142Z,8
2018-09-03T08:29:41.326Z,8
2018-09-03T08:30:51.277Z,8
2018-09-03T08:32:00.693Z,4
2018-09-03T08:33:09.858Z,8
2018-09-03T08:34:19.020Z,4
2018-09-03T08:35:28.766Z,4
2018-09-03T08:36:38.768Z,4
2018-09-03T08:37:47.957Z,4
2018-09-03T08:38:57.147Z,4
2018-09-03T08:40:06.690Z,0
2018-09-03T08:41:16.114Z,4
2018-09-03T08:42:25.792Z,4
2018-09-03T08:43:35.221Z,4
2018-09-03T08:44:44.823Z,4
2018-09-03T08:45:54.644Z,4
2018-09-03T08:47:04.584Z,4
2018-09-03T08:48:14.628Z,4
2018-09-03T08:49:23.790Z,4
2018-09-03T08:50:33.303Z,4
2018-09-03T08:51:42.731Z,4
2018-09-03T08:52:52.692Z,4
2018-09-03T08:54:01.860Z,4
2018-09-03T08:55:10.766Z,4
2018-09-03T08:56:19.927Z,4
2018-09-03T08:57:29.357Z,4
2018-09-03T08:58:39.081Z,4
2018-09-03T08:59:48.270Z,4
2018-09-03T09:00:57.513Z,4
2018-09-03T09:02:06.425Z,4
2018-09-03T09:03:16.099Z,4
2018-09-03T09:04:26.043Z,4
2018-09-03T09:05:34.960Z,4
2018-09-03T09:06:43.872Z,4
2018-09-03T09:07:53.572Z,4
2018-09-03T09:09:03.526Z,4
2018-09-03T09:10:12.707Z,4
2018-09-03T09:11:21.890Z,4
2018-09-03T09:12:31.323Z,4
2018-09-03T09:13:41.280Z,4
2018-09-03T09:14:50.711Z,4
2018-09-03T09:16:00.139Z,4
2018-09-03T09:17:09.578Z,4
2018-09-03T09:18:18.483Z,4
2018-09-03T09:19:28.178Z,4
2018-09-03T09:20:38.112Z,4
2018-09-03T09:21:47.558Z,4
2018-09-03T09:22:56.983Z,4
2018-09-03T09:24:06.212Z,4
2018-09-03T09:25:15.443Z,4
2018-09-03T09:26:25.146Z,4
2018-09-03T09:27:34.061Z,4
2018-09-03T09:28:43.539Z,0
2018-09-03T09:29:53.228Z,4
2018-09-03T09:31:02.484Z,4
2018-09-03T09:32:11.913Z,4
2018-09-03T09:33:21.334Z,4
2018-09-03T09:34:30.777Z,4
2018-09-03T09:35:40.221Z,8
2018-09-03T09:36:49.854Z,12
2018-09-03T09:37:59.661Z,16
2018-09-03T09:39:09.339Z,12
2018-09-03T09:40:18.893Z,16
2018-09-03T09:41:28.318Z,16
2018-09-03T09:42:37.999Z,12
2018-09-03T09:43:47.202Z,16
2018-09-03T09:44:56.114Z,16
2018-09-03T09:46:06.085Z,16
2018-09-03T09:47:15.529Z,12
2018-09-03T09:48:25.221Z,12
2018-09-03T09:49:34.908Z,12
2018-09-03T09:50:44.588Z,16
2018-09-03T09:51:54.031Z,20
2018-09-03T09:53:03.802Z,12
2018-09-03T09:54:13.239Z,8
2018-09-03T09:55:22.664Z,8
2018-09-03T09:56:31.679Z,8
2018-09-03T09:57:41.141Z,4
2018-09-03T09:58:50.585Z,4
2018-09-03T09:59:59.525Z,4
2018-09-03T10:01:08.700Z,4
2018-09-03T10:02:18.138Z,4
2018-09-03T10:03:27.326Z,8
2018-09-03T10:04:37.289Z,8
2018-09-03T10:05:46.473Z,8
2018-09-03T10:06:56.166Z,8
2018-09-03T10:08:05.081Z,8
2018-09-03T10:09:14.520Z,4
2018-09-03T10:10:24.150Z,8
2018-09-03T10:11:33.308Z,8
2018-09-03T10:12:42.993Z,12
2018-09-03T10:13:52.295Z,12
2018-09-03T10:15:02.009Z,8
2018-09-03T10:16:11.438Z,12
2018-09-03T10:17:20.615Z,8
2018-09-03T10:18:29.825Z,8
2018-09-03T10:19:39.267Z,8
2018-09-03T10:20:49.191Z,8
2018-09-03T10:21:58.930Z,8
2018-09-03T10:23:08.354Z,8
2018-09-03T10:24:17.790Z,4
2018-09-03T10:25:27.779Z,8
2018-09-03T10:26:37.491Z,4
2018-09-03T10:27:47.173Z,4
2018-09-03T10:28:56.889Z,4
2018-09-03T10:30:06.306Z,8
2018-09-03T10:31:15.992Z,4
2018-09-03T10:32:25.447Z,8
2018-09-03T10:33:34.947Z,4
2018-09-03T10:34:43.872Z,8
2018-09-03T10:35:53.556Z,8
2018-09-03T10:37:03.519Z,8
2018-09-03T10:38:13.918Z,12
2018-09-03T10:39:23.804Z,12
2018-09-03T10:40:33.244Z,12
2018-09-03T10:41:42.930Z,12
2018-09-03T10:42:52.391Z,16
2018-09-03T10:44:02.081Z,16
2018-09-03T10:45:12.176Z,12
2018-09-03T10:46:21.349Z,12
2018-09-03T10:47:31.174Z,12
2018-09-03T10:48:40.635Z,16
2018-09-03T10:49:50.079Z,12
2018-09-03T10:50:59.055Z,8
2018-09-03T10:52:08.220Z,12
2018-09-03T10:53:17.661Z,12
2018-09-03T10:54:26.846Z,12
2018-09-03T10:55:36.320Z,8
2018-09-03T10:56:45.786Z,12
2018-09-03T10:57:54.966Z,12
2018-09-03T10:59:04.037Z,12
2018-09-03T11:00:13.209Z,16
2018-09-03T11:01:22.382Z,12
2018-09-03T11:02:31.844Z,16
2018-09-03T11:03:40.771Z,20
2018-09-03T11:04:49.934Z,16
2018-09-03T11:05:59.387Z,20
2018-09-03T11:07:08.540Z,20
2018-09-03T11:08:17.994Z,28
2018-09-03T11:09:26.908Z,24
2018-09-03T11:10:36.861Z,20
2018-09-03T11:11:46.095Z,20
2018-09-03T11:12:55.769Z,16
2018-09-03T11:14:05.046Z,16
2018-09-03T11:15:15.132Z,20
2018-09-03T11:16:24.318Z,16
2018-09-03T11:17:33.237Z,16
2018-09-03T11:18:42.941Z,16
2018-09-03T11:19:53.036Z,12
2018-09-03T11:21:02.009Z,16
2018-09-03T11:22:11.472Z,12
2018-09-03T11:23:20.653Z,16
2018-09-03T11:24:30.100Z,16
2018-09-03T11:25:39.535Z,16
2018-09-03T11:26:48.963Z,12
2018-09-03T11:27:58.977Z,12
2018-09-03T11:29:08.441Z,16
2018-09-03T11:30:18.166Z,12
2018-09-03T11:31:27.653Z,16
2018-09-03T11:32:36.832Z,16
2018-09-03T11:33:46.535Z,12
2018-09-03T11:34:56.534Z,12
2018-09-03T11:36:06.224Z,16
2018-09-03T11:37:15.402Z,12
2018-09-03T11:38:24.830Z,12
2018-09-03T11:39:34.000Z,16
2018-09-03T11:40:43.504Z,12
2018-09-03T11:41:53.280Z,12
2018-09-03T11:43:02.192Z,16
2018-09-03T11:44:12.131Z,12
2018-09-03T11:45:21.301Z,12
2018-09-03T11:46:30.724Z,16
2018-09-03T11:47:39.682Z,16
2018-09-03T11:48:49.113Z,12
2018-09-03T11:49:58.579Z,16
2018-09-03T11:51:08.269Z,12
2018-09-03T11:52:17.439Z,12
2018-09-03T11:53:26.841Z,12
2018-09-03T11:54:36.589Z,12
2018-09-03T11:55:46.331Z,12
2018-09-03T11:56:55.634Z,12
2018-09-03T11:58:05.566Z,12
2018-09-03T11:59:15.020Z,12
2018-09-03T12:00:24.497Z,16
2018-09-03T12:01:33.676Z,16
2018-09-03T12:02:43.090Z,12
2018-09-03T12:03:52.777Z,12
2018-09-03T12:05:02.468Z,12
2018-09-03T12:06:11.671Z,12
2018-09-03T12:07:21.103Z,12
2018-09-03T12:08:30.527Z,8
2018-09-03T12:09:40.016Z,8
2018-09-03T12:10:49.186Z,12
2018-09-03T12:11:58.603Z,12
2018-09-03T12:13:07.505Z,8
2018-09-03T12:14:17.176Z,12
2018-09-03T12:15:26.345Z,12
2018-09-03T12:16:36.039Z,16
2018-09-03T12:17:44.933Z,12
2018-09-03T12:18:53.862Z,12
2018-09-03T12:20:03.536Z,12
2018-09-03T12:21:13.697Z,12
2018-09-03T12:22:22.902Z,12
2018-09-03T12:23:32.072Z,12
2018-09-03T12:24:41.761Z,16
2018-09-03T12:25:51.680Z,16
2018-09-03T12:27:01.392Z,16
2018-09-03T12:28:10.818Z,20
2018-09-03T12:29:20.286Z,16
2018-09-03T12:30:29.772Z,12
2018-09-03T12:31:39.840Z,12
2018-09-03T12:32:49.335Z,12
2018-09-03T12:33:58.757Z,8
2018-09-03T12:35:07.924Z,12
2018-09-03T12:36:17.336Z,12
2018-09-03T12:37:27.080Z,12
2018-09-03T12:38:37.033Z,12
2018-09-03T12:39:46.240Z,8
2018-09-03T12:40:55.799Z,8
2018-09-03T12:42:04.978Z,12
2018-09-03T12:43:14.418Z,12
2018-09-03T12:44:23.872Z,12
2018-09-03T12:45:33.077Z,16
2018-09-03T12:46:42.506Z,12
2018-09-03T12:47:51.421Z,12
2018-09-03T12:49:00.872Z,12
2018-09-03T12:50:11.134Z,8
2018-09-03T12:51:20.791Z,12
2018-09-03T12:52:30.300Z,12
2018-09-03T12:53:39.727Z,12
2018-09-03T12:54:49.427Z,12
2018-09-03T12:55:58.601Z,12
2018-09-03T12:57:08.041Z,12
2018-09-03T12:58:17.520Z,12
2018-09-03T12:59:27.211Z,12
2018-09-03T13:00:41.280Z,16
2018-09-03T13:01:50.970Z,12
2018-09-03T13:03:00.672Z,16
2018-09-03T13:04:10.396Z,12
2018-09-03T13:05:20.221Z,16
2018-09-03T13:06:29.746Z,12
2018-09-03T13:07:38.902Z,12
2018-09-03T13:08:48.637Z,16
2018-09-03T13:09:58.086Z,16
2018-09-03T13:11:07.763Z,16
2018-09-03T13:12:16.739Z,12
2018-09-03T13:13:26.868Z,12
2018-09-03T13:14:36.744Z,16
2018-09-03T13:15:46.693Z,16
2018-09-03T13:16:56.177Z,12
2018-09-03T13:18:05.234Z,12
2018-09-03T13:19:14.660Z,12
2018-09-03T13:20:24.147Z,12
2018-09-03T13:21:34.097Z,12
2018-09-03T13:22:43.514Z,12
2018-09-03T13:23:53.191Z,8
2018-09-03T13:25:03.129Z,8
2018-09-03T13:26:12.593Z,12
2018-09-03T13:27:21.751Z,8
2018-09-03T13:28:30.903Z,8
2018-09-03T13:29:40.081Z,8
2018-09-03T13:30:50.008Z,12
2018-09-03T13:32:00.134Z,8
2018-09-03T13:33:09.823Z,12
2018-09-03T13:34:18.982Z,16
2018-09-03T13:35:28.406Z,24
2018-09-03T13:36:38.094Z,32
2018-09-03T13:37:47.530Z,20
2018-09-03T13:38:56.429Z,16
2018-09-03T13:40:05.595Z,16
2018-09-03T13:41:15.056Z,16
2018-09-03T13:42:25.428Z,16
2018-09-03T13:43:35.550Z,12
2018-09-03T13:44:44.730Z,12
2018-09-03T13:45:54.403Z,12
2018-09-03T13:47:03.825Z,8
2018-09-03T13:48:14.402Z,8
2018-09-03T13:49:23.850Z,8
2018-09-03T13:50:33.940Z,12
2018-09-03T13:51:43.104Z,8
2018-09-03T13:52:52.773Z,8
2018-09-03T13:54:02.234Z,8
2018-09-03T13:55:11.982Z,8
2018-09-03T13:56:21.880Z,8
2018-09-03T13:57:31.058Z,8
2018-09-03T13:58:41.000Z,8
2018-09-03T13:59:50.161Z,8
2018-09-03T14:00:59.849Z,8
2018-09-03T14:02:09.266Z,8
2018-09-03T14:03:18.712Z,8
2018-09-03T14:04:27.394Z,8
2018-09-03T14:05:37.157Z,8
2018-09-03T14:06:46.334Z,8
2018-09-03T14:07:56.125Z,12
2018-09-03T14:09:05.291Z,8
2018-09-03T14:10:14.631Z,12
2018-09-03T14:11:24.555Z,12
2018-09-03T14:12:34.235Z,8
2018-09-03T14:13:44.168Z,12
2018-09-03T14:14:53.839Z,12
2018-09-03T14:16:03.325Z,12
2018-09-03T14:17:12.990Z,12
2018-09-03T14:18:22.448Z,12
2018-09-03T14:19:32.215Z,12
2018-09-03T14:20:41.933Z,12
2018-09-03T14:21:51.660Z,12
2018-09-03T14:23:01.360Z,12
2018-09-03T14:24:11.086Z,8
2018-09-03T14:25:20.497Z,12
2018-09-03T14:26:29.176Z,12
2018-09-03T14:27:38.662Z,8
2018-09-03T14:28:48.468Z,8
2018-09-03T14:29:57.372Z,8
2018-09-03T14:31:06.529Z,8
2018-09-03T14:32:15.750Z,12
2018-09-03T14:33:24.641Z,8
2018-09-03T14:34:33.792Z,8
2018-09-03T14:35:42.724Z,8
2018-09-03T14:36:52.152Z,8
2018-09-03T14:38:01.420Z,8
2018-09-03T14:39:11.104Z,8
2018-09-03T14:40:21.704Z,8
2018-09-03T14:41:31.137Z,8
2018-09-03T14:42:40.902Z,8
2018-09-03T14:43:50.500Z,8
2018-09-03T14:44:59.930Z,8
2018-09-03T14:46:09.354Z,12
2018-09-03T14:47:19.652Z,12
2018-09-03T14:48:29.324Z,8
2018-09-03T14:49:39.290Z,8
2018-09-03T14:50:49.952Z,8
2018-09-03T14:51:59.682Z,8
2018-09-03T14:53:08.950Z,8
2018-09-03T14:54:18.110Z,8
2018-09-03T14:55:28.039Z,8
2018-09-03T14:56:37.466Z,8
2018-09-03T14:57:46.875Z,8
2018-09-03T14:58:56.611Z,8
2018-09-03T15:00:05.833Z,8
2018-09-03T15:01:16.567Z,8
2018-09-03T15:02:27.111Z,8
2018-09-03T15:03:36.770Z,8
2018-09-03T15:04:46.186Z,4
2018-09-03T15:05:55.343Z,8
2018-09-03T15:07:05.530Z,8
2018-09-03T15:08:14.962Z,8
2018-09-03T15:09:24.733Z,8
2018-09-03T15:10:34.333Z,8
2018-09-03T15:11:43.894Z,8
2018-09-03T15:12:53.317Z,8
2018-09-03T15:14:03.259Z,4
2018-09-03T15:15:12.996Z,8
2018-09-03T15:16:22.962Z,4
2018-09-03T15:17:31.896Z,4
2018-09-03T15:18:41.328Z,4
2018-09-03T15:19:50.486Z,4
2018-09-03T15:20:59.684Z,8
2018-09-03T15:22:08.617Z,8
2018-09-03T15:23:17.908Z,8
2018-09-03T15:24:27.833Z,4
2018-09-03T15:25:37.002Z,4
2018-09-03T15:26:46.855Z,8
2018-09-03T15:27:56.023Z,8
2018-09-03T15:29:04.911Z,4
2018-09-03T15:30:13.555Z,4
2018-09-03T15:31:22.725Z,4
2018-09-03T15:32:32.407Z,4
2018-09-03T15:33:42.105Z,4
2018-09-03T15:34:51.521Z,4
2018-09-03T15:36:00.733Z,4
2018-09-03T15:37:10.253Z,4
2018-09-03T15:38:19.516Z,4
2018-09-03T15:39:28.673Z,4
2018-09-03T15:40:38.814Z,4
2018-09-03T15:41:48.767Z,4
2018-09-03T15:42:59.319Z,4
2018-09-03T15:44:08.531Z,4
2018-09-03T15:45:18.215Z,4
2018-09-03T15:46:27.416Z,4
2018-09-03T15:47:36.830Z,4
2018-09-03T15:48:47.181Z,4
2018-09-03T15:49:56.340Z,4
2018-09-03T15:51:06.306Z,4
2018-09-03T15:52:15.988Z,4
2018-09-03T15:53:25.408Z,4
2018-09-03T15:54:35.360Z,4
2018-09-03T15:55:44.525Z,4
2018-09-03T15:56:54.026Z,4
2018-09-03T15:58:03.983Z,4
2018-09-03T15:59:13.662Z,4
2018-09-03T16:00:22.566Z,4
2018-09-03T16:01:32.009Z,4
2018-09-03T16:02:41.682Z,4
2018-09-03T16:03:51.373Z,0
2018-09-03T16:05:01.075Z,4
2018-09-03T16:06:10.504Z,4
2018-09-03T16:07:19.486Z,4
2018-09-03T16:08:29.339Z,0
2018-09-03T16:09:39.001Z,0
2018-09-03T16:10:48.949Z,0
2018-09-03T16:11:58.110Z,4
2018-09-03T16:13:07.308Z,4
2018-09-03T16:14:16.611Z,0
2018-09-03T16:15:26.038Z,4
2018-09-03T16:16:35.511Z,0
2018-09-03T16:17:44.937Z,0
2018-09-03T16:18:54.652Z,4
2018-09-03T16:20:03.586Z,4
2018-09-03T16:21:12.765Z,4
2018-09-03T16:22:21.948Z,0
2018-09-03T16:23:31.097Z,4
2018-09-03T16:24:40.797Z,4
2018-09-03T16:25:50.132Z,4
2018-09-03T16:26:59.876Z,4
2018-09-03T16:28:09.561Z,4
2018-09-03T16:29:19.253Z,0
2018-09-03T16:30:28.696Z,0
2018-09-03T16:31:38.146Z,0
2018-09-03T16:32:48.111Z,0
2018-09-03T16:33:57.805Z,4
2018-09-03T16:35:06.983Z,4
2018-09-03T16:36:15.910Z,4
2018-09-03T16:37:25.381Z,0
2018-09-03T16:38:35.069Z,0
2018-09-03T16:39:44.232Z,4
2018-09-03T16:40:54.185Z,4
2018-09-03T16:42:03.990Z,4
2018-09-03T16:43:13.218Z,4
2018-09-03T16:44:22.390Z,4
2018-09-03T16:45:31.814Z,4
2018-09-03T16:46:41.495Z,4
2018-09-03T16:47:50.930Z,0
2018-09-03T16:49:01.028Z,0
2018-09-03T16:50:11.084Z,0
2018-09-03T16:51:21.016Z,0
2018-09-03T16:52:30.205Z,0
2018-09-03T16:53:39.105Z,0
2018-09-03T16:54:48.266Z,0
2018-09-03T16:55:57.207Z,0
2018-09-03T16:57:06.910Z,0
2018-09-03T16:58:16.333Z,0
2018-09-03T16:59:25.508Z,0